Acton, MA (01718)

7:58 PM EST on December 25, 2014 (GMT -0500)
Long Lake | Change Station
CLOSE
Current Station
Personal Weather Station
Location: Littleton, MA
Elevation: 272 ft
Nearby Weather Stations

Elev 272 ft 42.53 °N, 71.47 °W | Updated 3 seconds ago

Partly Cloudy
Partly Cloudy
42.6 °F
Feels Like 43 °F
N
2.0
Wind Variable Wind from NNE

Today
High -- | Low -- °F
--% Chance of Precip.
Yesterday
High -- | Low -- °F
Precip. -- in
7:13 AM 4:17 PM
Waxing Crescent, 20% visible
Pressure 29.86 in
Visibility 10.0 miles
Clouds Few 6000 ft
Windchill 43 °F
Dew Point 36 °F
Humidity 77%
Rainfall -999.00 in
Snow Depth Not available.
UV 0 out of 12
Pollen .10 out of 12
Air Quality Not available.
Flu Activity Not available.
METAR KBED 252356Z 28014G20KT 10SM FEW060 07/M02 A2982 RMK AO2 SLP110 T00721017 10106 20072 53032

More Conditions Fewer Conditions

Pressure 29.86 in
Visibility 10.0 miles
Clouds Few 6000 ft
Windchill 43 °F
Dew Point 36 °F
Humidity 77%
Rainfall -999.00 in
Snow Depth Not available.
UV 0 out of 12
Pollen .10 out of 12
Air Quality Not available.
Flu Activity Not available.
METAR KBED 252356Z 28014G20KT 10SM FEW060 07/M02 A2982 RMK AO2 SLP110 T00721017 10106 20072 53032

More Conditions Fewer Conditions

10-Day Weather Forecast

Almanac

Astronomy

Dec. 25, 2014 Rise Set
Actual Time
Civil Twilight
Nautical Twilight
Astronomical Twilight
Moon
Length of Visible Light
Length of Day
Tomorrow will be .
, % of the Moon is Illuminated

Today's Extremes

State Highs State Lows

Community

WunderPhotos

Upload Photos

1,780,483 photos uploaded!

WunderBlogs® & News

Nearby

Air Quality

  Air Quality AQ Index Pollutant
Not available.

Snow Depth

Station Depth Elevation

Earthquake Activity

City Distance Mag. Time & Date
Minimum magnitude displayed is 2.5.

Coastal Water Temperatures

Place Temperature

Nearby Weather Stations